createdAt,value
2023-03-21T00:01:53.288Z,6.10
2023-03-21T00:04:21.699Z,5.50
2023-03-21T00:06:49.053Z,5.63
2023-03-21T00:09:16.188Z,6.30
2023-03-21T00:11:43.397Z,5.80
2023-03-21T00:14:14.735Z,5.90
2023-03-21T00:16:45.775Z,5.83
2023-03-21T00:19:14.564Z,5.97
2023-03-21T00:22:05.879Z,6.10
2023-03-21T00:24:30.290Z,5.77
2023-03-21T00:27:06.031Z,6.10
2023-03-21T00:29:43.065Z,6.30
2023-03-21T00:32:10.046Z,6.97
2023-03-21T00:34:43.217Z,5.97
2023-03-21T00:37:18.894Z,6.57
2023-03-21T00:39:49.474Z,7.20
2023-03-21T00:42:17.053Z,6.00
2023-03-21T00:44:44.885Z,6.97
2023-03-21T00:47:12.975Z,6.73
2023-03-21T00:49:40.315Z,7.03
2023-03-21T00:52:18.281Z,6.57
2023-03-21T00:54:49.542Z,6.80
2023-03-21T00:57:16.900Z,7.07
2023-03-21T00:59:44.051Z,6.97
2023-03-21T01:08:29.294Z,6.37
2023-03-21T01:11:03.501Z,7.13
2023-03-21T01:13:31.093Z,7.30
2023-03-21T01:16:00.206Z,6.57
2023-03-21T01:18:30.404Z,7.53
2023-03-21T01:20:59.353Z,7.17
2023-03-21T01:23:27.927Z,7.40
2023-03-21T01:25:56.723Z,7.80
2023-03-21T01:28:26.627Z,9.07
2023-03-21T01:30:53.701Z,7.90
2023-03-21T01:33:22.435Z,8.30
2023-03-21T01:35:57.414Z,7.37
2023-03-21T01:38:30.287Z,8.30
2023-03-21T01:41:00.546Z,8.83
2023-03-21T01:43:49.500Z,8.23
2023-03-21T01:46:51.837Z,8.33
2023-03-21T01:49:34.475Z,8.50
2023-03-21T01:52:12.172Z,9.03
2023-03-21T01:54:44.574Z,8.63
2023-03-21T01:57:17.075Z,8.57
2023-03-21T01:59:50.410Z,8.83
2023-03-21T02:02:23.325Z,7.93
2023-03-21T02:04:56.201Z,9.47
2023-03-21T02:07:29.834Z,8.40
2023-03-21T02:09:58.237Z,8.00
2023-03-21T02:12:27.108Z,7.90
2023-03-21T02:14:54.935Z,8.80
2023-03-21T02:17:54.861Z,8.33
2023-03-21T02:21:01.524Z,7.73
2023-03-21T02:26:48.203Z,8.17
2023-03-21T02:29:56.944Z,8.23
2023-03-21T02:33:03.684Z,7.57
2023-03-21T02:36:05.629Z,7.90
2023-03-21T02:39:08.105Z,7.73
2023-03-21T02:42:06.413Z,7.77
2023-03-21T02:44:44.373Z,7.70
2023-03-21T02:47:18.598Z,8.27
2023-03-21T02:49:56.615Z,8.53
2023-03-21T02:52:38.797Z,8.57
2023-03-21T02:55:15.669Z,7.67
2023-03-21T02:57:45.370Z,8.47
2023-03-21T03:00:33.668Z,8.33
2023-03-21T03:03:09.680Z,8.53
2023-03-21T03:05:45.065Z,8.37
2023-03-21T03:09:01.870Z,8.20
2023-03-21T03:11:46.914Z,8.60
2023-03-21T03:15:02.151Z,8.40
2023-03-21T03:17:59.018Z,8.82
2023-03-21T03:20:53.999Z,9.35
2023-03-21T03:24:01.368Z,9.70
2023-03-21T03:26:37.196Z,9.83
2023-03-21T03:29:09.643Z,9.53
2023-03-21T03:31:41.903Z,8.40
2023-03-21T03:34:12.913Z,9.50
2023-03-21T03:36:44.807Z,8.83
2023-03-21T03:39:13.615Z,9.13
2023-03-21T03:42:12.487Z,8.57
2023-03-21T03:44:34.964Z,8.93
2023-03-21T03:47:06.589Z,8.43
2023-03-21T03:49:42.585Z,8.10
2023-03-21T03:52:20.445Z,8.77
2023-03-21T03:54:51.243Z,8.17
2023-03-21T03:57:19.392Z,8.30
2023-03-21T03:59:47.372Z,8.00
2023-03-21T04:02:14.735Z,8.83
2023-03-21T04:04:42.029Z,7.60
2023-03-21T04:07:09.197Z,7.87
2023-03-21T04:09:44.203Z,7.70
2023-03-21T04:12:13.220Z,8.03
2023-03-21T04:14:45.688Z,6.83
2023-03-21T04:17:14.014Z,7.37
2023-03-21T04:19:40.968Z,6.70
2023-03-21T04:22:08.106Z,7.57
2023-03-21T04:24:37.593Z,7.93
2023-03-21T04:27:06.056Z,7.70
2023-03-21T04:29:33.359Z,8.07
2023-03-21T04:32:01.523Z,8.50
2023-03-21T04:34:29.023Z,9.33
2023-03-21T04:36:56.986Z,8.07
2023-03-21T04:39:24.829Z,8.30
2023-03-21T04:41:51.935Z,7.73
2023-03-21T04:44:19.044Z,7.97
2023-03-21T04:46:46.202Z,7.47
2023-03-21T04:49:13.234Z,6.93
2023-03-21T04:51:40.660Z,6.70
2023-03-21T04:56:36.232Z,6.50
2023-03-21T04:59:09.010Z,7.07
2023-03-21T05:01:36.024Z,7.17
2023-03-21T05:04:04.774Z,5.60
2023-03-21T05:06:32.178Z,6.63
2023-03-21T05:09:00.608Z,6.33
2023-03-21T05:11:30.967Z,6.63
2023-03-21T05:13:59.293Z,6.87
2023-03-21T05:16:30.834Z,6.97
2023-03-21T05:18:59.344Z,6.60
2023-03-21T05:21:29.506Z,7.37
2023-03-21T05:23:58.530Z,6.50
2023-03-21T05:26:25.771Z,6.60
2023-03-21T05:28:53.211Z,6.37
2023-03-21T05:31:21.020Z,6.07
2023-03-21T05:33:48.454Z,6.20
2023-03-21T05:36:16.058Z,5.40
2023-03-21T05:38:45.786Z,6.50
2023-03-21T05:41:14.258Z,5.37
2023-03-21T05:43:41.988Z,6.47
2023-03-21T05:46:09.912Z,5.63
2023-03-21T05:48:36.945Z,6.60
2023-03-21T05:51:04.535Z,5.60
2023-03-21T05:53:31.851Z,5.87
2023-03-21T05:55:58.829Z,7.33
2023-03-21T05:58:25.928Z,7.27
2023-03-21T06:01:07.588Z,6.27
2023-03-21T06:03:34.654Z,7.00
2023-03-21T06:06:03.583Z,6.63
2023-03-21T06:08:31.896Z,6.80
2023-03-21T06:10:58.925Z,6.73
2023-03-21T06:13:26.030Z,6.30
2023-03-21T06:15:53.218Z,6.30
2023-03-21T06:18:20.266Z,6.37
2023-03-21T06:20:47.251Z,5.53
2023-03-21T06:23:14.253Z,5.77
2023-03-21T06:25:41.366Z,6.17
2023-03-21T06:28:08.401Z,6.47
2023-03-21T06:30:35.427Z,5.93
2023-03-21T06:33:02.426Z,6.70
2023-03-21T06:35:29.437Z,7.23
2023-03-21T06:37:58.533Z,6.93
2023-03-21T06:40:25.541Z,7.03
2023-03-21T06:42:52.528Z,7.60
2023-03-21T06:45:19.485Z,6.87
2023-03-21T06:47:46.598Z,7.90
2023-03-21T06:50:13.684Z,7.10
2023-03-21T06:52:40.703Z,7.70
2023-03-21T06:55:08.128Z,6.30
2023-03-21T06:57:35.085Z,7.40
2023-03-21T07:00:02.237Z,7.23
2023-03-21T07:02:29.666Z,6.93
2023-03-21T07:04:56.899Z,7.40
2023-03-21T07:07:27.221Z,7.37
2023-03-21T07:09:54.220Z,6.77
2023-03-21T07:12:24.182Z,6.27
2023-03-21T07:14:51.314Z,6.03
2023-03-21T07:17:18.313Z,6.20
2023-03-21T07:19:45.317Z,6.77
2023-03-21T07:22:12.368Z,5.87
2023-03-21T07:24:39.326Z,6.17
2023-03-21T07:27:06.460Z,6.10
2023-03-21T07:29:33.581Z,5.33
2023-03-21T07:32:00.705Z,8.67
2023-03-21T07:34:31.655Z,6.87
2023-03-21T07:36:58.655Z,7.03
2023-03-21T07:39:26.187Z,6.43
2023-03-21T07:41:55.743Z,5.10
2023-03-21T07:44:24.400Z,6.67
2023-03-21T07:46:51.388Z,6.37
2023-03-21T07:49:18.394Z,5.97
2023-03-21T07:51:45.396Z,7.30
2023-03-21T07:54:12.419Z,6.80
2023-03-21T07:56:39.458Z,5.50
2023-03-21T07:59:06.511Z,5.53
2023-03-21T08:01:33.965Z,5.83
2023-03-21T08:04:00.948Z,5.27
2023-03-21T08:06:29.048Z,5.93
2023-03-21T08:08:56.093Z,6.37
2023-03-21T08:11:23.800Z,6.70
2023-03-21T08:13:51.454Z,5.17
2023-03-21T08:16:18.801Z,4.90
2023-03-21T08:18:45.999Z,4.70
2023-03-21T08:21:13.015Z,5.80
2023-03-21T08:23:40.245Z,5.47
2023-03-21T08:26:07.811Z,5.63
2023-03-21T08:28:35.348Z,5.50
2023-03-21T08:31:08.538Z,5.90
2023-03-21T08:33:35.611Z,4.83
2023-03-21T08:36:02.977Z,5.30
2023-03-21T08:38:30.371Z,5.27
2023-03-21T08:41:00.091Z,4.97
2023-03-21T08:43:28.021Z,4.53
2023-03-21T08:45:55.736Z,5.53
2023-03-21T08:48:23.038Z,5.03
2023-03-21T08:50:50.295Z,5.07
2023-03-21T08:53:19.751Z,5.80
2023-03-21T08:55:46.859Z,6.17
2023-03-21T08:58:13.927Z,5.50
2023-03-21T09:00:41.076Z,5.13
2023-03-21T09:03:09.479Z,4.80
2023-03-21T09:05:38.594Z,4.53
2023-03-21T09:08:05.812Z,5.83
2023-03-21T09:10:32.900Z,5.07
2023-03-21T09:12:59.930Z,5.33
2023-03-21T09:15:29.024Z,4.60
2023-03-21T09:17:58.878Z,5.13
2023-03-21T09:20:31.229Z,5.37
2023-03-21T09:22:59.326Z,5.23
2023-03-21T09:25:31.711Z,4.70
2023-03-21T09:28:00.392Z,4.93
2023-03-21T09:30:28.358Z,6.07
2023-03-21T09:32:55.982Z,5.13
2023-03-21T09:35:24.420Z,5.63
2023-03-21T09:37:51.689Z,5.30
2023-03-21T09:40:27.489Z,6.60
2023-03-21T09:43:34.316Z,5.47
2023-03-21T09:46:41.279Z,5.37
2023-03-21T09:49:18.179Z,5.03
2023-03-21T09:51:48.933Z,4.90
2023-03-21T09:54:27.446Z,4.93
2023-03-21T09:56:58.308Z,4.33
2023-03-21T09:59:35.877Z,4.37
2023-03-21T10:02:04.194Z,3.70
2023-03-21T10:04:34.044Z,6.23
2023-03-21T10:07:02.804Z,5.13
2023-03-21T10:09:32.612Z,4.03
2023-03-21T10:12:08.412Z,3.60
2023-03-21T10:14:42.956Z,3.50
2023-03-21T10:17:33.808Z,3.88
2023-03-21T10:20:25.038Z,3.63
2023-03-21T10:22:56.124Z,4.10
2023-03-21T10:26:03.812Z,4.87
2023-03-21T10:28:49.897Z,4.53
2023-03-21T10:31:22.290Z,4.30
2023-03-21T10:33:51.268Z,4.03
2023-03-21T10:36:22.833Z,4.00
2023-03-21T10:39:00.412Z,4.20
2023-03-21T10:41:27.828Z,4.63
2023-03-21T10:44:32.474Z,4.33
2023-03-21T10:47:06.439Z,3.83
2023-03-21T10:49:40.598Z,4.33
2023-03-21T10:52:21.546Z,4.27
2023-03-21T10:54:49.052Z,4.57
2023-03-21T10:57:22.584Z,4.67
2023-03-21T11:00:00.364Z,4.33
2023-03-21T11:02:38.214Z,4.23
2023-03-21T11:05:09.582Z,4.73
2023-03-21T11:07:37.854Z,4.07
2023-03-21T11:10:26.480Z,4.30
2023-03-21T11:12:57.841Z,4.57
2023-03-21T11:16:04.549Z,4.33
2023-03-21T11:18:33.378Z,4.23
2023-03-21T11:21:10.552Z,4.30
2023-03-21T11:23:44.699Z,3.80
2023-03-21T11:26:24.043Z,3.97
2023-03-21T11:28:52.067Z,4.00
2023-03-21T11:31:19.321Z,3.87
2023-03-21T11:34:07.777Z,3.93
2023-03-21T11:36:39.303Z,3.70
2023-03-21T11:39:29.118Z,3.90
2023-03-21T11:41:56.545Z,5.20
2023-03-21T11:44:31.624Z,4.20
2023-03-21T11:46:59.455Z,4.50
2023-03-21T11:49:28.265Z,4.20
2023-03-21T11:52:23.611Z,4.60
2023-03-21T11:55:18.066Z,4.13
2023-03-21T11:58:05.347Z,3.70
2023-03-21T12:00:55.219Z,3.60
2023-03-21T12:03:49.054Z,3.93
2023-03-21T12:06:25.892Z,4.77
2023-03-21T12:09:04.056Z,3.80
2023-03-21T12:12:10.898Z,4.03
2023-03-21T12:15:18.071Z,4.30
2023-03-21T12:18:24.827Z,4.07
2023-03-21T12:21:20.950Z,4.03
2023-03-21T12:24:14.920Z,3.65
2023-03-21T12:27:07.186Z,4.13
2023-03-21T12:30:13.920Z,4.30
2023-03-21T12:33:09.217Z,4.23
2023-03-21T12:35:56.489Z,4.43
2023-03-21T12:38:28.866Z,4.00
2023-03-21T12:41:22.136Z,4.20
2023-03-21T12:44:13.118Z,4.00
2023-03-21T12:47:01.512Z,3.53
2023-03-21T12:49:55.222Z,4.23
2023-03-21T12:52:27.108Z,4.20
2023-03-21T12:55:17.316Z,4.00
2023-03-21T12:58:16.713Z,5.10
2023-03-21T13:01:01.734Z,4.37
2023-03-21T13:03:40.217Z,4.30
2023-03-21T13:06:11.012Z,5.40
2023-03-21T13:09:23.262Z,4.13
2023-03-21T13:11:57.527Z,5.13
2023-03-21T13:14:30.876Z,4.40
2023-03-21T13:17:06.827Z,4.43
2023-03-21T13:19:58.757Z,4.23
2023-03-21T13:22:29.063Z,4.07
2023-03-21T13:25:18.582Z,4.80
2023-03-21T13:27:55.473Z,4.30
2023-03-21T13:30:27.581Z,4.30
2023-03-21T13:33:15.664Z,4.17
2023-03-21T13:35:44.614Z,4.57
2023-03-21T13:38:21.542Z,4.80
2023-03-21T13:41:12.029Z,4.53
2023-03-21T13:44:15.882Z,4.07
2023-03-21T13:46:54.397Z,4.37
2023-03-21T13:49:32.804Z,4.27
2023-03-21T13:52:01.139Z,4.50
2023-03-21T13:54:49.642Z,4.00
2023-03-21T13:57:39.041Z,4.13
2023-03-21T14:00:29.451Z,4.83
2023-03-21T14:03:03.031Z,4.67
2023-03-21T14:05:30.483Z,4.33
2023-03-21T14:08:12.687Z,4.40
2023-03-21T14:10:45.811Z,4.03
2023-03-21T14:13:16.554Z,4.80
2023-03-21T14:15:55.957Z,4.87
2023-03-21T14:18:35.514Z,4.70
2023-03-21T14:21:25.126Z,4.80
2023-03-21T14:24:12.952Z,3.93
2023-03-21T14:26:45.629Z,4.00
2023-03-21T14:29:38.366Z,5.70
2023-03-21T14:32:06.094Z,4.40
2023-03-21T14:34:35.850Z,4.57
2023-03-21T14:37:06.793Z,4.57
2023-03-21T14:39:33.815Z,5.53
2023-03-21T14:42:05.526Z,4.53
2023-03-21T14:45:00.545Z,4.57
2023-03-21T14:47:29.468Z,4.63
2023-03-21T14:49:58.144Z,5.13
2023-03-21T14:52:30.194Z,6.43
2023-03-21T14:54:58.018Z,5.37
2023-03-21T14:57:30.605Z,4.97
2023-03-21T15:00:02.054Z,4.60
2023-03-21T15:02:34.671Z,5.07
2023-03-21T15:05:31.082Z,4.90
2023-03-21T15:08:22.402Z,4.47
2023-03-21T15:11:13.046Z,5.00
2023-03-21T15:13:50.293Z,5.27
2023-03-21T15:16:18.419Z,4.70
2023-03-21T15:18:46.818Z,5.37
2023-03-21T15:21:20.581Z,6.00
2023-03-21T15:23:49.199Z,4.97
2023-03-21T15:26:19.068Z,5.73
2023-03-21T15:28:49.092Z,4.90
2023-03-21T15:31:19.319Z,6.00
2023-03-21T15:33:48.982Z,4.90
2023-03-21T15:36:22.029Z,6.07
2023-03-21T15:38:49.900Z,4.30
2023-03-21T15:41:37.474Z,4.20
2023-03-21T15:44:22.343Z,4.93
2023-03-21T15:46:52.144Z,5.32
2023-03-21T15:49:27.377Z,8.53
2023-03-21T15:52:15.503Z,5.10
2023-03-21T15:54:56.043Z,6.80
2023-03-21T15:57:30.025Z,6.40
2023-03-21T16:00:02.725Z,4.90
2023-03-21T16:02:30.998Z,5.97
2023-03-21T16:05:01.218Z,6.67
2023-03-21T16:07:28.566Z,6.80
2023-03-21T16:10:04.803Z,4.70
2023-03-21T16:12:31.887Z,4.90
2023-03-21T16:14:58.993Z,4.90
2023-03-21T16:17:51.713Z,4.50
2023-03-21T16:20:22.907Z,4.13
2023-03-21T16:22:49.965Z,4.37
2023-03-21T16:25:17.343Z,5.13
2023-03-21T16:27:45.366Z,5.03
2023-03-21T16:30:14.991Z,4.93
2023-03-21T16:32:42.414Z,4.53
2023-03-21T16:35:10.001Z,5.47
2023-03-21T16:37:37.151Z,5.13
2023-03-21T16:40:15.538Z,4.63
2023-03-21T16:42:43.921Z,4.30
2023-03-21T16:45:12.006Z,5.27
2023-03-21T16:47:39.128Z,4.17
2023-03-21T16:50:39.156Z,5.70
2023-03-21T16:53:06.418Z,9.67
2023-03-21T16:55:34.890Z,8.27
2023-03-21T16:58:02.418Z,6.67
2023-03-21T17:00:30.937Z,6.87
2023-03-21T17:03:01.700Z,7.63
2023-03-21T17:05:31.014Z,9.57
2023-03-21T17:08:02.240Z,9.33
2023-03-21T17:10:31.360Z,10.63
2023-03-21T17:12:58.396Z,10.73
2023-03-21T17:15:25.678Z,8.93
2023-03-21T17:17:55.586Z,10.83
2023-03-21T17:20:26.284Z,10.80
2023-03-21T17:22:53.276Z,9.57
2023-03-21T17:25:20.971Z,8.63
2023-03-21T17:27:48.494Z,7.80
2023-03-21T17:30:40.395Z,6.60
2023-03-21T17:33:07.823Z,6.37
2023-03-21T17:35:34.921Z,16.10
2023-03-21T17:38:01.958Z,10.07
2023-03-21T17:40:33.505Z,8.57
2023-03-21T17:43:01.794Z,13.17
2023-03-21T17:45:29.806Z,7.60
2023-03-21T17:47:56.883Z,5.97
2023-03-21T17:50:26.892Z,6.37
2023-03-21T17:52:56.552Z,7.33
2023-03-21T17:55:23.888Z,12.80
2023-03-21T17:57:50.926Z,11.43
2023-03-21T18:00:23.035Z,12.37
2023-03-21T18:02:50.773Z,10.93
2023-03-21T18:05:18.630Z,12.17
2023-03-21T18:10:33.604Z,15.73
2023-03-21T18:13:00.855Z,14.77
2023-03-21T18:15:30.456Z,16.60
2023-03-21T18:17:57.943Z,14.43
2023-03-21T18:20:45.501Z,10.37
2023-03-21T18:23:14.776Z,10.13
2023-03-21T18:25:41.934Z,12.17
2023-03-21T18:28:11.811Z,9.00
2023-03-21T18:33:27.656Z,9.37
2023-03-21T18:35:59.409Z,8.23
2023-03-21T18:38:28.042Z,7.50
2023-03-21T18:40:55.595Z,8.50
2023-03-21T18:46:10.185Z,9.67
2023-03-21T18:48:37.238Z,8.70
2023-03-21T18:51:04.828Z,9.40
2023-03-21T18:53:32.129Z,9.57
2023-03-21T18:55:59.187Z,8.97
2023-03-21T18:58:26.252Z,9.37
2023-03-21T19:00:54.027Z,9.57
2023-03-21T19:03:35.405Z,8.97
2023-03-21T19:06:04.995Z,8.90
2023-03-21T19:08:32.655Z,9.70
2023-03-21T19:11:03.282Z,9.07
2023-03-21T19:13:33.282Z,8.73
2023-03-21T19:16:02.400Z,9.83
2023-03-21T19:18:52.084Z,9.63
2023-03-21T19:21:19.342Z,9.60
2023-03-21T19:26:33.952Z,9.93
2023-03-21T19:29:01.375Z,21.90
2023-03-21T19:31:28.500Z,27.67
2023-03-21T19:34:01.830Z,9.70
2023-03-21T19:36:34.440Z,14.97
2023-03-21T19:39:02.166Z,11.27
2023-03-21T19:41:29.180Z,12.83
2023-03-21T19:43:56.647Z,10.80
2023-03-21T19:46:25.594Z,9.77
2023-03-21T19:48:57.641Z,10.57
2023-03-21T19:51:29.465Z,9.40
2023-03-21T19:53:58.515Z,12.47
2023-03-21T19:56:27.328Z,12.97
2023-03-21T19:58:56.227Z,12.33
2023-03-21T20:01:24.863Z,11.13
2023-03-21T20:03:52.659Z,12.23
2023-03-21T20:06:22.487Z,10.77
2023-03-21T20:09:27.309Z,11.27
2023-03-21T20:11:37.418Z,11.40
2023-03-21T20:14:05.426Z,11.80
2023-03-21T20:16:35.813Z,13.50
2023-03-21T20:19:06.171Z,12.00
2023-03-21T20:21:44.443Z,13.80
2023-03-21T20:24:16.972Z,13.30
2023-03-21T20:26:45.284Z,13.70
2023-03-21T20:30:06.990Z,13.27
2023-03-21T20:32:00.150Z,12.33
2023-03-21T20:34:29.087Z,13.90
2023-03-21T20:36:58.465Z,13.80
2023-03-21T20:39:28.628Z,14.47
2023-03-21T20:41:58.949Z,15.93
2023-03-21T20:44:57.172Z,15.13
2023-03-21T20:47:14.606Z,15.50
2023-03-21T20:49:41.682Z,14.77
2023-03-21T20:52:54.503Z,13.80
2023-03-21T20:54:57.589Z,14.50
2023-03-21T20:57:27.289Z,14.70
2023-03-21T20:59:55.220Z,14.80
2023-03-21T21:02:22.900Z,13.70
2023-03-21T21:05:21.483Z,14.30
2023-03-21T21:07:37.039Z,14.40
2023-03-21T21:10:04.468Z,14.30
2023-03-21T21:12:31.844Z,13.73
2023-03-21T21:14:58.863Z,13.40
2023-03-21T21:17:48.493Z,13.73
2023-03-21T21:20:17.059Z,13.43
2023-03-21T21:22:58.439Z,14.60
2023-03-21T21:25:26.328Z,14.43
2023-03-21T21:27:53.921Z,14.37
2023-03-21T21:33:02.552Z,14.23
2023-03-21T21:35:29.756Z,14.37
2023-03-21T21:37:56.832Z,14.80
2023-03-21T21:40:24.296Z,15.30
2023-03-21T21:42:51.840Z,13.97
2023-03-21T21:45:19.375Z,15.63
2023-03-21T21:47:46.739Z,15.87
2023-03-21T21:50:14.546Z,15.53
2023-03-21T21:52:43.925Z,15.17
2023-03-21T21:55:13.214Z,13.40
2023-03-21T21:57:41.120Z,14.47
2023-03-21T22:00:13.685Z,15.30
2023-03-21T22:02:41.558Z,13.67
2023-03-21T22:05:09.473Z,14.43
2023-03-21T22:07:37.634Z,14.90
2023-03-21T22:10:05.317Z,14.63
2023-03-21T22:12:32.641Z,14.03
2023-03-21T22:15:00.070Z,16.10
2023-03-21T22:17:27.104Z,17.47
2023-03-21T22:20:05.093Z,15.90
2023-03-21T22:22:34.824Z,14.17
2023-03-21T22:25:02.225Z,14.47
2023-03-21T22:27:29.656Z,15.53
2023-03-21T22:29:56.607Z,15.57
2023-03-21T22:32:23.919Z,15.20
2023-03-21T22:34:51.275Z,17.40
2023-03-21T22:37:18.580Z,16.47
2023-03-21T22:39:45.995Z,14.83
2023-03-21T22:42:12.980Z,16.23
2023-03-21T22:44:39.939Z,14.50
2023-03-21T22:47:09.447Z,15.17
2023-03-21T22:49:36.913Z,15.83
2023-03-21T22:52:05.164Z,14.57
2023-03-21T22:54:32.771Z,14.23
2023-03-21T22:57:00.406Z,14.63
2023-03-21T22:59:27.894Z,15.00
2023-03-21T23:01:55.083Z,15.10
2023-03-21T23:04:22.515Z,14.87
2023-03-21T23:06:49.624Z,14.30
2023-03-21T23:09:17.739Z,14.67
2023-03-21T23:11:46.262Z,15.93
2023-03-21T23:14:15.317Z,13.80
2023-03-21T23:16:45.125Z,13.23
2023-03-21T23:19:12.174Z,13.10
2023-03-21T23:21:39.374Z,14.97
2023-03-21T23:24:07.704Z,14.50
2023-03-21T23:26:35.376Z,14.13
2023-03-21T23:29:02.548Z,13.20
2023-03-21T23:31:29.720Z,13.00
2023-03-21T23:33:59.214Z,15.00
2023-03-21T23:36:26.613Z,13.27
2023-03-21T23:38:53.655Z,12.90
2023-03-21T23:41:22.465Z,13.63
2023-03-21T23:43:49.995Z,13.27
2023-03-21T23:46:18.321Z,12.90
2023-03-21T23:48:46.522Z,12.83
2023-03-21T23:51:16.357Z,12.50
2023-03-21T23:53:44.545Z,12.80
2023-03-21T23:56:32.447Z,11.73
2023-03-21T23:58:59.687Z,12.23
